sensor_id;sensor_type;location;lat;lon;timestamp;P1;durP1;ratioP1;P2;durP2;ratioP2
35126;SDS011;21300;52.006;5.798;2023-07-20T00:02:13;8.30;;;4.70;;
35126;SDS011;21300;52.006;5.798;2023-07-20T00:04:39;6.97;;;5.05;;
35126;SDS011;21300;52.006;5.798;2023-07-20T00:07:04;7.13;;;5.05;;
35126;SDS011;21300;52.006;5.798;2023-07-20T00:09:30;7.05;;;4.50;;
35126;SDS011;21300;52.006;5.798;2023-07-20T00:11:56;6.78;;;5.32;;
35126;SDS011;21300;52.006;5.798;2023-07-20T00:14:22;6.88;;;4.95;;
35126;SDS011;21300;52.006;5.798;2023-07-20T00:16:49;6.43;;;4.72;;
35126;SDS011;21300;52.006;5.798;2023-07-20T00:19:20;8.30;;;5.35;;
35126;SDS011;21300;52.006;5.798;2023-07-20T00:21:52;8.25;;;5.65;;
35126;SDS011;21300;52.006;5.798;2023-07-20T00:24:18;6.10;;;4.97;;
35126;SDS011;21300;52.006;5.798;2023-07-20T00:26:44;7.32;;;5.53;;
35126;SDS011;21300;52.006;5.798;2023-07-20T00:29:10;6.85;;;5.20;;
35126;SDS011;21300;52.006;5.798;2023-07-20T00:31:36;7.93;;;4.38;;
35126;SDS011;21300;52.006;5.798;2023-07-20T00:34:02;8.55;;;5.57;;
35126;SDS011;21300;52.006;5.798;2023-07-20T00:36:29;7.20;;;5.10;;
35126;SDS011;21300;52.006;5.798;2023-07-20T00:38:54;6.70;;;5.10;;
35126;SDS011;21300;52.006;5.798;2023-07-20T00:41:20;6.25;;;4.95;;
35126;SDS011;21300;52.006;5.798;2023-07-20T00:43:45;8.20;;;5.32;;
35126;SDS011;21300;52.006;5.798;2023-07-20T00:46:11;8.77;;;5.20;;
35126;SDS011;21300;52.006;5.798;2023-07-20T00:48:37;7.10;;;4.97;;
35126;SDS011;21300;52.006;5.798;2023-07-20T00:51:04;6.93;;;4.60;;
35126;SDS011;21300;52.006;5.798;2023-07-20T00:53:30;6.82;;;4.82;;
35126;SDS011;21300;52.006;5.798;2023-07-20T00:55:56;7.30;;;4.57;;
35126;SDS011;21300;52.006;5.798;2023-07-20T00:58:22;7.55;;;4.82;;
35126;SDS011;21300;52.006;5.798;2023-07-20T01:00:49;6.10;;;5.22;;
35126;SDS011;21300;52.006;5.798;2023-07-20T01:03:14;7.15;;;4.90;;
35126;SDS011;21300;52.006;5.798;2023-07-20T01:11:06;6.70;;;4.43;;
35126;SDS011;21300;52.006;5.798;2023-07-20T01:13:38;9.90;;;5.00;;
35126;SDS011;21300;52.006;5.798;2023-07-20T01:16:05;6.75;;;4.85;;
35126;SDS011;21300;52.006;5.798;2023-07-20T01:18:30;6.18;;;4.28;;
35126;SDS011;21300;52.006;5.798;2023-07-20T01:20:59;5.45;;;4.20;;
35126;SDS011;21300;52.006;5.798;2023-07-20T01:23:42;5.45;;;4.28;;
35126;SDS011;21300;52.006;5.798;2023-07-20T01:32:18;7.40;;;4.45;;
35126;SDS011;21300;52.006;5.798;2023-07-20T01:34:46;8.35;;;4.68;;
35126;SDS011;21300;52.006;5.798;2023-07-20T01:37:14;5.60;;;4.20;;
35126;SDS011;21300;52.006;5.798;2023-07-20T01:39:41;9.07;;;3.85;;
35126;SDS011;21300;52.006;5.798;2023-07-20T01:42:07;4.78;;;4.22;;
35126;SDS011;21300;52.006;5.798;2023-07-20T01:44:33;4.63;;;3.70;;
35126;SDS011;21300;52.006;5.798;2023-07-20T01:46:58;5.60;;;4.20;;
35126;SDS011;21300;52.006;5.798;2023-07-20T01:49:24;7.20;;;4.07;;
35126;SDS011;21300;52.006;5.798;2023-07-20T01:51:49;4.45;;;3.80;;
35126;SDS011;21300;52.006;5.798;2023-07-20T01:54:15;5.07;;;3.70;;
35126;SDS011;21300;52.006;5.798;2023-07-20T01:56:40;5.25;;;3.78;;
35126;SDS011;21300;52.006;5.798;2023-07-20T01:59:06;4.95;;;3.85;;
35126;SDS011;21300;52.006;5.798;2023-07-20T02:01:32;4.97;;;3.45;;
35126;SDS011;21300;52.006;5.798;2023-07-20T02:03:59;6.07;;;3.50;;
35126;SDS011;21300;52.006;5.798;2023-07-20T02:06:24;4.93;;;3.58;;
35126;SDS011;21300;52.006;5.798;2023-07-20T02:08:50;3.83;;;3.42;;
35126;SDS011;21300;52.006;5.798;2023-07-20T02:11:15;4.82;;;3.72;;
35126;SDS011;21300;52.006;5.798;2023-07-20T02:13:41;6.40;;;3.45;;
35126;SDS011;21300;52.006;5.798;2023-07-20T02:16:06;5.63;;;3.45;;
35126;SDS011;21300;52.006;5.798;2023-07-20T02:18:32;4.03;;;3.45;;
35126;SDS011;21300;52.006;5.798;2023-07-20T02:20:58;4.03;;;3.20;;
35126;SDS011;21300;52.006;5.798;2023-07-20T02:23:24;4.95;;;3.53;;
35126;SDS011;21300;52.006;5.798;2023-07-20T02:25:49;4.28;;;3.58;;
35126;SDS011;21300;52.006;5.798;2023-07-20T02:28:15;5.75;;;3.40;;
35126;SDS011;21300;52.006;5.798;2023-07-20T02:30:40;5.65;;;3.38;;
35126;SDS011;21300;52.006;5.798;2023-07-20T02:33:06;3.65;;;3.20;;
35126;SDS011;21300;52.006;5.798;2023-07-20T02:35:32;4.65;;;3.70;;
35126;SDS011;21300;52.006;5.798;2023-07-20T02:37:58;4.60;;;3.25;;
35126;SDS011;21300;52.006;5.798;2023-07-20T02:40:23;4.30;;;3.40;;
35126;SDS011;21300;52.006;5.798;2023-07-20T02:42:49;3.90;;;3.30;;
35126;SDS011;21300;52.006;5.798;2023-07-20T02:45:15;4.32;;;3.42;;
35126;SDS011;21300;52.006;5.798;2023-07-20T02:47:41;4.50;;;3.55;;
35126;SDS011;21300;52.006;5.798;2023-07-20T02:50:07;4.22;;;3.47;;
35126;SDS011;21300;52.006;5.798;2023-07-20T02:52:33;4.72;;;2.97;;
35126;SDS011;21300;52.006;5.798;2023-07-20T02:54:59;4.22;;;3.10;;
35126;SDS011;21300;52.006;5.798;2023-07-20T02:57:25;4.18;;;3.35;;
35126;SDS011;21300;52.006;5.798;2023-07-20T02:59:50;5.60;;;3.58;;
35126;SDS011;21300;52.006;5.798;2023-07-20T03:02:16;4.28;;;3.17;;
35126;SDS011;21300;52.006;5.798;2023-07-20T03:04:41;3.97;;;3.58;;
35126;SDS011;21300;52.006;5.798;2023-07-20T03:07:07;3.70;;;3.40;;
35126;SDS011;21300;52.006;5.798;2023-07-20T03:09:32;3.85;;;3.45;;
35126;SDS011;21300;52.006;5.798;2023-07-20T03:11:58;4.78;;;3.60;;
35126;SDS011;21300;52.006;5.798;2023-07-20T03:14:24;3.15;;;2.85;;
35126;SDS011;21300;52.006;5.798;2023-07-20T03:16:49;6.15;;;3.13;;
35126;SDS011;21300;52.006;5.798;2023-07-20T03:19:15;3.30;;;3.00;;
35126;SDS011;21300;52.006;5.798;2023-07-20T03:21:40;4.78;;;3.17;;
35126;SDS011;21300;52.006;5.798;2023-07-20T03:24:07;4.72;;;3.35;;
35126;SDS011;21300;52.006;5.798;2023-07-20T03:26:33;4.57;;;3.53;;
35126;SDS011;21300;52.006;5.798;2023-07-20T03:28:59;4.13;;;3.42;;
35126;SDS011;21300;52.006;5.798;2023-07-20T03:31:25;4.93;;;3.17;;
35126;SDS011;21300;52.006;5.798;2023-07-20T03:33:51;4.65;;;2.90;;
35126;SDS011;21300;52.006;5.798;2023-07-20T03:36:17;3.05;;;2.72;;
35126;SDS011;21300;52.006;5.798;2023-07-20T03:38:43;5.15;;;2.90;;
35126;SDS011;21300;52.006;5.798;2023-07-20T03:41:08;5.10;;;3.10;;
35126;SDS011;21300;52.006;5.798;2023-07-20T03:43:34;5.03;;;2.85;;
35126;SDS011;21300;52.006;5.798;2023-07-20T03:46:00;6.57;;;3.08;;
35126;SDS011;21300;52.006;5.798;2023-07-20T03:48:26;4.43;;;3.08;;
35126;SDS011;21300;52.006;5.798;2023-07-20T03:50:52;4.82;;;2.88;;
35126;SDS011;21300;52.006;5.798;2023-07-20T03:53:19;5.80;;;3.03;;
35126;SDS011;21300;52.006;5.798;2023-07-20T03:55:45;6.72;;;2.83;;
35126;SDS011;21300;52.006;5.798;2023-07-20T03:58:14;3.85;;;2.90;;
35126;SDS011;21300;52.006;5.798;2023-07-20T04:00:47;8.93;;;3.30;;
35126;SDS011;21300;52.006;5.798;2023-07-20T04:03:15;3.80;;;2.95;;
35126;SDS011;21300;52.006;5.798;2023-07-20T04:05:41;3.40;;;2.60;;
35126;SDS011;21300;52.006;5.798;2023-07-20T04:08:07;4.45;;;2.80;;
35126;SDS011;21300;52.006;5.798;2023-07-20T04:10:32;3.83;;;3.13;;
35126;SDS011;21300;52.006;5.798;2023-07-20T04:12:58;5.32;;;2.70;;
35126;SDS011;21300;52.006;5.798;2023-07-20T04:15:24;3.17;;;2.85;;
35126;SDS011;21300;52.006;5.798;2023-07-20T04:17:50;3.53;;;3.00;;
35126;SDS011;21300;52.006;5.798;2023-07-20T04:20:16;2.75;;;2.50;;
35126;SDS011;21300;52.006;5.798;2023-07-20T04:22:43;5.05;;;3.13;;
35126;SDS011;21300;52.006;5.798;2023-07-20T04:25:08;3.67;;;2.90;;
35126;SDS011;21300;52.006;5.798;2023-07-20T04:27:35;3.17;;;2.88;;
35126;SDS011;21300;52.006;5.798;2023-07-20T04:30:00;5.38;;;2.78;;
35126;SDS011;21300;52.006;5.798;2023-07-20T04:32:27;5.00;;;2.92;;
35126;SDS011;21300;52.006;5.798;2023-07-20T04:34:52;5.20;;;3.20;;
35126;SDS011;21300;52.006;5.798;2023-07-20T04:37:18;4.22;;;2.78;;
35126;SDS011;21300;52.006;5.798;2023-07-20T04:39:44;4.30;;;2.83;;
35126;SDS011;21300;52.006;5.798;2023-07-20T04:42:09;3.55;;;3.25;;
35126;SDS011;21300;52.006;5.798;2023-07-20T04:44:35;3.70;;;3.40;;
35126;SDS011;21300;52.006;5.798;2023-07-20T04:47:00;3.67;;;3.13;;
35126;SDS011;21300;52.006;5.798;2023-07-20T04:49:27;4.38;;;3.00;;
35126;SDS011;21300;52.006;5.798;2023-07-20T04:51:53;4.47;;;3.13;;
35126;SDS011;21300;52.006;5.798;2023-07-20T04:54:19;3.67;;;3.08;;
35126;SDS011;21300;52.006;5.798;2023-07-20T04:56:45;3.55;;;3.25;;
35126;SDS011;21300;52.006;5.798;2023-07-20T04:59:10;3.30;;;3.00;;
35126;SDS011;21300;52.006;5.798;2023-07-20T05:01:36;4.13;;;3.30;;
35126;SDS011;21300;52.006;5.798;2023-07-20T05:04:02;4.07;;;3.60;;
35126;SDS011;21300;52.006;5.798;2023-07-20T05:06:27;3.90;;;3.50;;
35126;SDS011;21300;52.006;5.798;2023-07-20T05:08:53;3.40;;;3.10;;
35126;SDS011;21300;52.006;5.798;2023-07-20T05:11:18;4.38;;;3.40;;
35126;SDS011;21300;52.006;5.798;2023-07-20T05:13:44;3.92;;;3.17;;
35126;SDS011;21300;52.006;5.798;2023-07-20T05:16:10;4.00;;;3.20;;
35126;SDS011;21300;52.006;5.798;2023-07-20T05:18:36;4.05;;;3.65;;
35126;SDS011;21300;52.006;5.798;2023-07-20T05:21:01;3.65;;;3.30;;
35126;SDS011;21300;52.006;5.798;2023-07-20T05:23:27;4.93;;;3.60;;
35126;SDS011;21300;52.006;5.798;2023-07-20T05:25:56;4.65;;;3.88;;
35126;SDS011;21300;52.006;5.798;2023-07-20T05:28:22;5.93;;;3.63;;
35126;SDS011;21300;52.006;5.798;2023-07-20T05:30:49;4.15;;;3.55;;
35126;SDS011;21300;52.006;5.798;2023-07-20T05:33:16;5.00;;;3.80;;
35126;SDS011;21300;52.006;5.798;2023-07-20T05:35:42;4.45;;;4.00;;
35126;SDS011;21300;52.006;5.798;2023-07-20T05:38:08;4.22;;;3.40;;
35126;SDS011;21300;52.006;5.798;2023-07-20T05:40:37;5.78;;;3.80;;
35126;SDS011;21300;52.006;5.798;2023-07-20T05:43:05;4.13;;;3.72;;
35126;SDS011;21300;52.006;5.798;2023-07-20T05:45:30;5.53;;;3.55;;
35126;SDS011;21300;52.006;5.798;2023-07-20T05:47:56;5.93;;;3.35;;
35126;SDS011;21300;52.006;5.798;2023-07-20T05:50:21;4.10;;;3.40;;
35126;SDS011;21300;52.006;5.798;2023-07-20T05:52:47;6.13;;;3.15;;
35126;SDS011;21300;52.006;5.798;2023-07-20T05:55:13;4.18;;;2.90;;
35126;SDS011;21300;52.006;5.798;2023-07-20T05:57:38;4.85;;;3.28;;
35126;SDS011;21300;52.006;5.798;2023-07-20T06:00:07;4.65;;;3.50;;
35126;SDS011;21300;52.006;5.798;2023-07-20T06:02:33;4.35;;;3.30;;
35126;SDS011;21300;52.006;5.798;2023-07-20T06:04:59;5.40;;;3.10;;
35126;SDS011;21300;52.006;5.798;2023-07-20T06:07:25;6.32;;;3.30;;
35126;SDS011;21300;52.006;5.798;2023-07-20T06:09:50;4.95;;;2.85;;
35126;SDS011;21300;52.006;5.798;2023-07-20T06:12:16;2.88;;;2.55;;
35126;SDS011;21300;52.006;5.798;2023-07-20T06:14:41;3.45;;;2.90;;
35126;SDS011;21300;52.006;5.798;2023-07-20T06:17:07;3.35;;;2.53;;
35126;SDS011;21300;52.006;5.798;2023-07-20T06:19:32;3.47;;;1.70;;
35126;SDS011;21300;52.006;5.798;2023-07-20T06:21:58;2.10;;;1.80;;
35126;SDS011;21300;52.006;5.798;2023-07-20T06:24:24;2.28;;;1.60;;
35126;SDS011;21300;52.006;5.798;2023-07-20T06:26:50;3.22;;;2.00;;
35126;SDS011;21300;52.006;5.798;2023-07-20T06:29:15;3.03;;;1.90;;
35126;SDS011;21300;52.006;5.798;2023-07-20T06:31:41;3.67;;;2.03;;
35126;SDS011;21300;52.006;5.798;2023-07-20T06:34:06;2.72;;;1.90;;
35126;SDS011;21300;52.006;5.798;2023-07-20T06:36:32;2.38;;;1.98;;
35126;SDS011;21300;52.006;5.798;2023-07-20T06:38:57;3.75;;;2.05;;
35126;SDS011;21300;52.006;5.798;2023-07-20T06:41:23;2.33;;;1.65;;
35126;SDS011;21300;52.006;5.798;2023-07-20T06:43:48;3.78;;;1.88;;
35126;SDS011;21300;52.006;5.798;2023-07-20T06:46:14;2.92;;;1.70;;
35126;SDS011;21300;52.006;5.798;2023-07-20T06:48:40;3.03;;;1.45;;
35126;SDS011;21300;52.006;5.798;2023-07-20T06:51:05;2.60;;;1.73;;
35126;SDS011;21300;52.006;5.798;2023-07-20T06:53:31;3.22;;;1.75;;
35126;SDS011;21300;52.006;5.798;2023-07-20T06:55:57;2.75;;;1.65;;
35126;SDS011;21300;52.006;5.798;2023-07-20T06:58:23;2.92;;;1.60;;
35126;SDS011;21300;52.006;5.798;2023-07-20T07:00:49;2.60;;;1.33;;
35126;SDS011;21300;52.006;5.798;2023-07-20T07:03:14;3.92;;;1.45;;
35126;SDS011;21300;52.006;5.798;2023-07-20T07:05:40;2.95;;;1.67;;
35126;SDS011;21300;52.006;5.798;2023-07-20T07:08:05;1.92;;;1.10;;
35126;SDS011;21300;52.006;5.798;2023-07-20T07:10:31;1.83;;;1.30;;
35126;SDS011;21300;52.006;5.798;2023-07-20T07:13:01;1.98;;;1.30;;
35126;SDS011;21300;52.006;5.798;2023-07-20T07:15:27;3.47;;;1.10;;
35126;SDS011;21300;52.006;5.798;2023-07-20T07:17:52;3.03;;;1.10;;
35126;SDS011;21300;52.006;5.798;2023-07-20T07:20:18;1.45;;;0.80;;
35126;SDS011;21300;52.006;5.798;2023-07-20T07:22:44;2.67;;;1.08;;
35126;SDS011;21300;52.006;5.798;2023-07-20T07:25:10;3.10;;;0.95;;
35126;SDS011;21300;52.006;5.798;2023-07-20T07:27:36;2.65;;;1.10;;
35126;SDS011;21300;52.006;5.798;2023-07-20T07:30:02;2.45;;;0.85;;
35126;SDS011;21300;52.006;5.798;2023-07-20T07:32:28;2.15;;;0.90;;
35126;SDS011;21300;52.006;5.798;2023-07-20T07:34:53;4.10;;;1.02;;
35126;SDS011;21300;52.006;5.798;2023-07-20T07:37:20;2.25;;;1.35;;
35126;SDS011;21300;52.006;5.798;2023-07-20T07:39:45;1.70;;;1.08;;
35126;SDS011;21300;52.006;5.798;2023-07-20T07:42:11;2.38;;;1.10;;
35126;SDS011;21300;52.006;5.798;2023-07-20T07:44:38;1.10;;;1.00;;
35126;SDS011;21300;52.006;5.798;2023-07-20T07:47:03;4.97;;;1.20;;
35126;SDS011;21300;52.006;5.798;2023-07-20T07:49:29;2.40;;;0.90;;
35126;SDS011;21300;52.006;5.798;2023-07-20T07:51:56;1.55;;;0.80;;
35126;SDS011;21300;52.006;5.798;2023-07-20T07:54:22;1.80;;;1.00;;
35126;SDS011;21300;52.006;5.798;2023-07-20T07:56:47;2.60;;;0.75;;
35126;SDS011;21300;52.006;5.798;2023-07-20T07:59:13;1.35;;;0.73;;
35126;SDS011;21300;52.006;5.798;2023-07-20T08:01:38;1.77;;;0.88;;
35126;SDS011;21300;52.006;5.798;2023-07-20T08:04:04;2.38;;;0.80;;
35126;SDS011;21300;52.006;5.798;2023-07-20T08:06:30;1.23;;;0.80;;
35126;SDS011;21300;52.006;5.798;2023-07-20T08:08:56;1.80;;;1.00;;
35126;SDS011;21300;52.006;5.798;2023-07-20T08:11:23;2.22;;;0.70;;
35126;SDS011;21300;52.006;5.798;2023-07-20T08:13:48;4.50;;;1.25;;
35126;SDS011;21300;52.006;5.798;2023-07-20T08:16:14;1.88;;;0.93;;
35126;SDS011;21300;52.006;5.798;2023-07-20T08:18:39;1.35;;;0.80;;
35126;SDS011;21300;52.006;5.798;2023-07-20T08:21:05;2.30;;;0.82;;
35126;SDS011;21300;52.006;5.798;2023-07-20T08:23:31;2.15;;;1.00;;
35126;SDS011;21300;52.006;5.798;2023-07-20T08:25:56;2.17;;;0.93;;
35126;SDS011;21300;52.006;5.798;2023-07-20T08:28:22;2.42;;;1.00;;
35126;SDS011;21300;52.006;5.798;2023-07-20T08:30:48;1.60;;;0.85;;
35126;SDS011;21300;52.006;5.798;2023-07-20T08:33:14;1.85;;;0.80;;
35126;SDS011;21300;52.006;5.798;2023-07-20T08:35:41;2.38;;;1.15;;
35126;SDS011;21300;52.006;5.798;2023-07-20T08:38:08;1.67;;;0.85;;
35126;SDS011;21300;52.006;5.798;2023-07-20T08:40:34;1.77;;;0.98;;
35126;SDS011;21300;52.006;5.798;2023-07-20T08:43:04;3.67;;;0.88;;
35126;SDS011;21300;52.006;5.798;2023-07-20T08:45:30;2.45;;;1.00;;
35126;SDS011;21300;52.006;5.798;2023-07-20T08:47:58;1.40;;;0.80;;
35126;SDS011;21300;52.006;5.798;2023-07-20T08:50:28;4.20;;;0.70;;
35126;SDS011;21300;52.006;5.798;2023-07-20T08:52:56;1.48;;;0.75;;
35126;SDS011;21300;52.006;5.798;2023-07-20T08:55:24;1.27;;;0.80;;
35126;SDS011;21300;52.006;5.798;2023-07-20T08:57:54;1.15;;;0.73;;
35126;SDS011;21300;52.006;5.798;2023-07-20T09:00:20;2.28;;;0.90;;
35126;SDS011;21300;52.006;5.798;2023-07-20T09:02:48;2.30;;;0.90;;
35126;SDS011;21300;52.006;5.798;2023-07-20T09:05:16;1.80;;;0.80;;
35126;SDS011;21300;52.006;5.798;2023-07-20T09:07:45;1.52;;;0.98;;
35126;SDS011;21300;52.006;5.798;2023-07-20T09:10:11;2.90;;;1.02;;
35126;SDS011;21300;52.006;5.798;2023-07-20T09:12:41;1.50;;;0.90;;
35126;SDS011;21300;52.006;5.798;2023-07-20T09:15:08;1.02;;;0.70;;
35126;SDS011;21300;52.006;5.798;2023-07-20T09:17:35;1.05;;;0.45;;
35126;SDS011;21300;52.006;5.798;2023-07-20T09:20:02;1.52;;;0.68;;
35126;SDS011;21300;52.006;5.798;2023-07-20T09:22:32;3.00;;;0.50;;
35126;SDS011;21300;52.006;5.798;2023-07-20T09:24:58;1.90;;;0.70;;
35126;SDS011;21300;52.006;5.798;2023-07-20T09:27:37;1.30;;;0.60;;
35126;SDS011;21300;52.006;5.798;2023-07-20T09:30:04;1.23;;;0.50;;
35126;SDS011;21300;52.006;5.798;2023-07-20T09:32:35;1.13;;;0.60;;
35126;SDS011;21300;52.006;5.798;2023-07-20T09:35:18;2.05;;;0.70;;
35126;SDS011;21300;52.006;5.798;2023-07-20T09:37:46;1.38;;;0.47;;
35126;SDS011;21300;52.006;5.798;2023-07-20T09:40:16;1.40;;;0.40;;
35126;SDS011;21300;52.006;5.798;2023-07-20T09:42:42;1.75;;;0.55;;
35126;SDS011;21300;52.006;5.798;2023-07-20T09:45:08;0.90;;;0.57;;
35126;SDS011;21300;52.006;5.798;2023-07-20T09:47:35;3.42;;;0.60;;
35126;SDS011;21300;52.006;5.798;2023-07-20T09:50:06;0.90;;;0.50;;
35126;SDS011;21300;52.006;5.798;2023-07-20T09:52:39;1.33;;;0.60;;
35126;SDS011;21300;52.006;5.798;2023-07-20T09:55:06;1.30;;;0.60;;
35126;SDS011;21300;52.006;5.798;2023-07-20T09:57:33;1.75;;;0.75;;
35126;SDS011;21300;52.006;5.798;2023-07-20T10:00:01;1.23;;;0.60;;
35126;SDS011;21300;52.006;5.798;2023-07-20T10:02:30;1.65;;;0.70;;
35126;SDS011;21300;52.006;5.798;2023-07-20T10:04:58;0.80;;;0.50;;
35126;SDS011;21300;52.006;5.798;2023-07-20T10:07:28;1.45;;;0.80;;
35126;SDS011;21300;52.006;5.798;2023-07-20T10:09:55;0.80;;;0.40;;
35126;SDS011;21300;52.006;5.798;2023-07-20T10:12:24;2.38;;;0.60;;
35126;SDS011;21300;52.006;5.798;2023-07-20T10:15:11;2.20;;;0.77;;
35126;SDS011;21300;52.006;5.798;2023-07-20T10:17:39;3.22;;;1.02;;
35126;SDS011;21300;52.006;5.798;2023-07-20T10:20:14;1.77;;;0.60;;
35126;SDS011;21300;52.006;5.798;2023-07-20T10:22:41;2.97;;;0.93;;
35126;SDS011;21300;52.006;5.798;2023-07-20T10:25:10;1.77;;;0.93;;
35126;SDS011;21300;52.006;5.798;2023-07-20T10:27:36;2.40;;;0.70;;
35126;SDS011;21300;52.006;5.798;2023-07-20T10:30:04;1.60;;;0.70;;
35126;SDS011;21300;52.006;5.798;2023-07-20T10:32:30;1.80;;;0.70;;
35126;SDS011;21300;52.006;5.798;2023-07-20T10:34:56;1.10;;;0.88;;
35126;SDS011;21300;52.006;5.798;2023-07-20T10:40:24;1.13;;;0.70;;
35126;SDS011;21300;52.006;5.798;2023-07-20T10:42:49;2.92;;;1.23;;
35126;SDS011;21300;52.006;5.798;2023-07-20T10:45:15;1.50;;;0.80;;
35126;SDS011;21300;52.006;5.798;2023-07-20T10:47:45;1.73;;;1.00;;
35126;SDS011;21300;52.006;5.798;2023-07-20T10:50:11;2.70;;;1.00;;
35126;SDS011;21300;52.006;5.798;2023-07-20T10:52:38;2.08;;;1.05;;
35126;SDS011;21300;52.006;5.798;2023-07-20T10:55:14;1.40;;;1.10;;
35126;SDS011;21300;52.006;5.798;2023-07-20T10:57:41;2.97;;;1.00;;
35126;SDS011;21300;52.006;5.798;2023-07-20T11:02:46;3.58;;;0.98;;
35126;SDS011;21300;52.006;5.798;2023-07-20T11:05:31;0.90;;;0.70;;
35126;SDS011;21300;52.006;5.798;2023-07-20T11:08:11;2.78;;;1.08;;
35126;SDS011;21300;52.006;5.798;2023-07-20T11:10:37;1.83;;;0.88;;
35126;SDS011;21300;52.006;5.798;2023-07-20T11:18:25;2.75;;;0.90;;
35126;SDS011;21300;52.006;5.798;2023-07-20T11:20:51;1.90;;;1.13;;
35126;SDS011;21300;52.006;5.798;2023-07-20T11:23:18;1.13;;;0.70;;
35126;SDS011;21300;52.006;5.798;2023-07-20T11:25:45;2.58;;;0.80;;
35126;SDS011;21300;52.006;5.798;2023-07-20T11:28:11;0.70;;;0.50;;
35126;SDS011;21300;52.006;5.798;2023-07-20T11:30:39;1.02;;;0.60;;
35126;SDS011;21300;52.006;5.798;2023-07-20T11:33:05;2.55;;;0.70;;
35126;SDS011;21300;52.006;5.798;2023-07-20T11:35:43;0.70;;;0.60;;
35126;SDS011;21300;52.006;5.798;2023-07-20T11:38:13;1.63;;;0.70;;
35126;SDS011;21300;52.006;5.798;2023-07-20T11:40:42;0.85;;;0.70;;
35126;SDS011;21300;52.006;5.798;2023-07-20T11:43:09;2.22;;;0.70;;
35126;SDS011;21300;52.006;5.798;2023-07-20T11:45:37;1.60;;;0.75;;
35126;SDS011;21300;52.006;5.798;2023-07-20T11:48:03;2.05;;;1.00;;
35126;SDS011;21300;52.006;5.798;2023-07-20T11:50:29;1.73;;;0.70;;
35126;SDS011;21300;52.006;5.798;2023-07-20T11:52:54;2.67;;;0.55;;
35126;SDS011;21300;52.006;5.798;2023-07-20T11:55:21;1.08;;;0.80;;
35126;SDS011;21300;52.006;5.798;2023-07-20T11:58:03;2.38;;;0.80;;
35126;SDS011;21300;52.006;5.798;2023-07-20T12:00:33;2.75;;;0.93;;
35126;SDS011;21300;52.006;5.798;2023-07-20T12:02:59;1.48;;;0.80;;
35126;SDS011;21300;52.006;5.798;2023-07-20T12:05:25;1.80;;;0.70;;
35126;SDS011;21300;52.006;5.798;2023-07-20T12:07:51;0.80;;;0.63;;
35126;SDS011;21300;52.006;5.798;2023-07-20T12:10:22;0.90;;;0.60;;
35126;SDS011;21300;52.006;5.798;2023-07-20T12:12:53;1.85;;;0.80;;
35126;SDS011;21300;52.006;5.798;2023-07-20T12:17:46;0.98;;;0.70;;
35126;SDS011;21300;52.006;5.798;2023-07-20T12:20:24;1.52;;;0.70;;
35126;SDS011;21300;52.006;5.798;2023-07-20T12:23:01;1.02;;;0.50;;
35126;SDS011;21300;52.006;5.798;2023-07-20T12:28:12;0.93;;;0.40;;
35126;SDS011;21300;52.006;5.798;2023-07-20T12:30:40;0.93;;;0.60;;
35126;SDS011;21300;52.006;5.798;2023-07-20T12:33:06;0.90;;;0.40;;
35126;SDS011;21300;52.006;5.798;2023-07-20T12:35:32;1.60;;;0.60;;
35126;SDS011;21300;52.006;5.798;2023-07-20T12:37:58;0.73;;;0.40;;
35126;SDS011;21300;52.006;5.798;2023-07-20T12:40:23;1.80;;;0.50;;
35126;SDS011;21300;52.006;5.798;2023-07-20T12:42:49;1.85;;;0.50;;
35126;SDS011;21300;52.006;5.798;2023-07-20T12:45:15;2.65;;;0.70;;
35126;SDS011;21300;52.006;5.798;2023-07-20T12:47:41;1.65;;;0.70;;
35126;SDS011;21300;52.006;5.798;2023-07-20T12:50:08;2.35;;;0.57;;
35126;SDS011;21300;52.006;5.798;2023-07-20T12:52:35;0.90;;;0.50;;
35126;SDS011;21300;52.006;5.798;2023-07-20T12:55:02;1.65;;;0.50;;
35126;SDS011;21300;52.006;5.798;2023-07-20T12:57:28;2.17;;;0.60;;
35126;SDS011;21300;52.006;5.798;2023-07-20T12:59:54;2.85;;;0.60;;
35126;SDS011;21300;52.006;5.798;2023-07-20T13:02:20;2.00;;;0.55;;
35126;SDS011;21300;52.006;5.798;2023-07-20T13:04:45;1.98;;;0.45;;
35126;SDS011;21300;52.006;5.798;2023-07-20T13:07:11;1.38;;;0.40;;
35126;SDS011;21300;52.006;5.798;2023-07-20T13:09:37;1.17;;;0.50;;
35126;SDS011;21300;52.006;5.798;2023-07-20T13:12:02;1.33;;;0.50;;
35126;SDS011;21300;52.006;5.798;2023-07-20T13:14:28;2.00;;;0.65;;
35126;SDS011;21300;52.006;5.798;2023-07-20T13:16:55;0.50;;;0.38;;
35126;SDS011;21300;52.006;5.798;2023-07-20T13:19:21;0.98;;;0.65;;
35126;SDS011;21300;52.006;5.798;2023-07-20T13:21:46;2.83;;;0.70;;
35126;SDS011;21300;52.006;5.798;2023-07-20T13:24:12;0.80;;;0.65;;
35126;SDS011;21300;52.006;5.798;2023-07-20T13:26:37;2.50;;;0.57;;
35126;SDS011;21300;52.006;5.798;2023-07-20T13:29:03;0.93;;;0.57;;
35126;SDS011;21300;52.006;5.798;2023-07-20T13:31:29;1.35;;;0.68;;
35126;SDS011;21300;52.006;5.798;2023-07-20T13:33:54;0.90;;;0.43;;
35126;SDS011;21300;52.006;5.798;2023-07-20T13:36:21;1.88;;;0.73;;
35126;SDS011;21300;52.006;5.798;2023-07-20T13:38:47;4.65;;;0.73;;
35126;SDS011;21300;52.006;5.798;2023-07-20T13:41:13;0.88;;;0.50;;
35126;SDS011;21300;52.006;5.798;2023-07-20T13:43:41;1.73;;;0.60;;
35126;SDS011;21300;52.006;5.798;2023-07-20T13:46:07;1.80;;;0.60;;
35126;SDS011;21300;52.006;5.798;2023-07-20T13:48:32;3.60;;;0.52;;
35126;SDS011;21300;52.006;5.798;2023-07-20T13:50:58;1.38;;;0.70;;
35126;SDS011;21300;52.006;5.798;2023-07-20T13:53:23;1.60;;;0.60;;
35126;SDS011;21300;52.006;5.798;2023-07-20T13:55:49;2.63;;;0.68;;
35126;SDS011;21300;52.006;5.798;2023-07-20T13:58:14;1.00;;;0.50;;
35126;SDS011;21300;52.006;5.798;2023-07-20T14:00:40;1.42;;;0.50;;
35126;SDS011;21300;52.006;5.798;2023-07-20T14:03:06;1.80;;;0.60;;
35126;SDS011;21300;52.006;5.798;2023-07-20T14:05:31;1.63;;;0.85;;
35126;SDS011;21300;52.006;5.798;2023-07-20T14:07:58;1.90;;;1.02;;
35126;SDS011;21300;52.006;5.798;2023-07-20T14:10:24;1.95;;;0.52;;
35126;SDS011;21300;52.006;5.798;2023-07-20T14:12:49;1.88;;;0.40;;
35126;SDS011;21300;52.006;5.798;2023-07-20T14:15:16;0.95;;;0.60;;
35126;SDS011;21300;52.006;5.798;2023-07-20T14:17:42;0.77;;;0.60;;
35126;SDS011;21300;52.006;5.798;2023-07-20T14:20:08;2.33;;;0.47;;
35126;SDS011;21300;52.006;5.798;2023-07-20T14:22:34;2.60;;;0.80;;
35126;SDS011;21300;52.006;5.798;2023-07-20T14:25:00;1.38;;;0.73;;
35126;SDS011;21300;52.006;5.798;2023-07-20T14:27:25;3.33;;;0.75;;
35126;SDS011;21300;52.006;5.798;2023-07-20T14:29:51;1.02;;;0.70;;
35126;SDS011;21300;52.006;5.798;2023-07-20T14:32:18;1.73;;;0.77;;
35126;SDS011;21300;52.006;5.798;2023-07-20T14:34:43;2.80;;;0.60;;
35126;SDS011;21300;52.006;5.798;2023-07-20T14:37:09;1.40;;;0.80;;
35126;SDS011;21300;52.006;5.798;2023-07-20T14:39:35;1.15;;;0.65;;
35126;SDS011;21300;52.006;5.798;2023-07-20T14:42:01;0.80;;;0.50;;
35126;SDS011;21300;52.006;5.798;2023-07-20T14:44:29;1.27;;;0.52;;
35126;SDS011;21300;52.006;5.798;2023-07-20T14:46:54;3.00;;;0.80;;
35126;SDS011;21300;52.006;5.798;2023-07-20T14:49:20;1.35;;;0.70;;
35126;SDS011;21300;52.006;5.798;2023-07-20T14:51:46;2.97;;;0.57;;
35126;SDS011;21300;52.006;5.798;2023-07-20T14:54:12;3.65;;;1.02;;
35126;SDS011;21300;52.006;5.798;2023-07-20T14:56:38;1.50;;;0.68;;
35126;SDS011;21300;52.006;5.798;2023-07-20T14:59:09;1.85;;;0.73;;
35126;SDS011;21300;52.006;5.798;2023-07-20T15:01:34;1.02;;;0.60;;
35126;SDS011;21300;52.006;5.798;2023-07-20T15:04:00;1.02;;;0.63;;
35126;SDS011;21300;52.006;5.798;2023-07-20T15:06:26;2.38;;;0.85;;
35126;SDS011;21300;52.006;5.798;2023-07-20T15:08:51;1.23;;;0.60;;
35126;SDS011;21300;52.006;5.798;2023-07-20T15:11:17;1.15;;;0.63;;
35126;SDS011;21300;52.006;5.798;2023-07-20T15:13:43;1.70;;;0.80;;